Time;durP1;ratioP1;P1;durP2;ratioP2;P2;SDS_P1;SDS_P2;PMS_P1;PMS_P2;Temp;Humidity;BMP_temperature;BMP_pressure;BME280_temperature;BME280_humidity;BME280_pressure;Samples;Min_cycle;Max_cycle;Signal;HPM_P1;HPM_P2
2022/03/23 00:00:51;;;;;;;22.73;16.23;;;;;;;8.82;47.28;99986.78;4142519;28;20348;-65
2022/03/23 00:02:53;;;;;;;24.67;16.23;;;;;;;9.08;46.95;99984.34;4143725;28;20710;-65
2022/03/23 00:04:55;;;;;;;24.47;16.97;;;;;;;9.41;46.34;99984.81;4142036;28;20619;-65
2022/03/23 00:06:58;;;;;;;21.33;15.83;;;;;;;8.94;46.88;99989.09;4143864;28;20268;-65
2022/03/23 00:09:00;;;;;;;22.43;15.53;;;;;;;8.77;48.39;100003.09;4146003;28;20619;-65
2022/03/23 00:11:03;;;;;;;24.57;16.00;;;;;;;8.57;48.17;99992.50;4145946;28;20592;-65
2022/03/23 00:13:04;;;;;;;21.80;15.60;;;;;;;9.34;45.66;99995.16;4149195;28;20298;-65
2022/03/23 00:15:06;;;;;;;24.13;15.43;;;;;;;8.71;46.53;99991.25;4142579;28;20764;-65
2022/03/23 00:17:08;;;;;;;22.50;15.77;;;;;;;8.68;47.00;99986.22;4143439;28;20261;-64
2022/03/23 00:19:10;;;;;;;21.40;15.80;;;;;;;8.95;47.05;99992.63;4150706;28;20229;-65
2022/03/23 00:21:12;;;;;;;22.97;15.37;;;;;;;9.04;46.15;99994.41;4142389;28;20269;-65
2022/03/23 00:23:14;;;;;;;21.83;14.47;;;;;;;9.16;46.11;99989.75;4143762;28;20262;-65
2022/03/23 00:25:16;;;;;;;25.07;15.47;;;;;;;9.31;45.84;99990.13;4141846;28;20337;-65
2022/03/23 00:27:17;;;;;;;23.00;15.90;;;;;;;9.45;45.81;99980.88;4143371;28;20320;-65
2022/03/23 00:29:19;;;;;;;22.73;16.57;;;;;;;9.23;46.16;100003.28;4143846;28;20345;-65
2022/03/23 00:31:22;;;;;;;31.57;20.53;;;;;;;9.16;45.32;99994.25;4142906;28;20611;-65
2022/03/23 00:33:23;;;;;;;27.30;20.20;;;;;;;9.26;45.34;99984.44;4141735;28;20264;-65
2022/03/23 00:35:25;;;;;;;28.87;20.53;;;;;;;9.31;45.32;99975.03;4142207;28;20335;-65
2022/03/23 00:37:27;;;;;;;24.67;18.17;;;;;;;10.79;41.78;99978.50;4143101;28;20708;-65
2022/03/23 00:39:28;;;;;;;20.87;15.83;;;;;;;11.73;40.58;99983.00;4142486;28;20256;-65
2022/03/23 00:41:30;;;;;;;27.80;16.67;;;;;;;11.75;40.11;99998.84;4141193;28;20611;-65
2022/03/23 00:43:32;;;;;;;27.00;17.57;;;;;;;11.62;40.08;100017.09;4149423;28;20252;-65
2022/03/23 00:45:33;;;;;;;25.40;18.00;;;;;;;11.19;40.83;100017.03;4157622;28;20259;-65
2022/03/23 00:47:35;;;;;;;23.27;19.23;;;;;;;11.35;40.47;100026.94;4149486;28;20295;-65
2022/03/23 00:49:37;;;;;;;30.63;20.90;;;;;;;11.09;40.90;100021.59;4146069;28;20234;-65
2022/03/23 00:51:39;;;;;;;27.50;20.03;;;;;;;9.47;44.10;100030.19;4140811;28;20249;-65
2022/03/23 00:53:41;;;;;;;23.53;17.90;;;;;;;9.24;44.73;100027.03;4150404;28;20268;-65
2022/03/23 00:55:42;;;;;;;20.47;15.90;;;;;;;10.31;42.64;100017.75;4142976;28;20356;-65
2022/03/23 00:57:44;;;;;;;23.37;16.33;;;;;;;10.85;41.43;100011.59;4143347;28;20226;-65
2022/03/23 00:59:46;;;;;;;25.10;16.90;;;;;;;11.46;40.55;100015.16;4143091;28;20229;-65
2022/03/23 01:01:48;;;;;;;23.87;17.27;;;;;;;11.46;40.12;100024.00;4142757;28;20316;-65
2022/03/23 01:03:50;;;;;;;22.33;16.63;;;;;;;11.48;39.95;100024.69;4146209;28;20306;-65
2022/03/23 01:05:52;;;;;;;28.30;16.20;;;;;;;11.52;39.85;100031.34;4150604;28;20592;-65
2022/03/23 01:07:54;;;;;;;21.93;16.00;;;;;;;11.38;40.38;100031.13;4143472;28;20265;-66
2022/03/23 01:09:55;;;;;;;20.13;15.43;;;;;;;10.96;40.92;100032.66;4145032;28;20229;-65
2022/03/23 01:11:58;;;;;;;21.90;14.43;;;;;;;10.88;40.95;100033.41;4132371;28;20700;-65
2022/03/23 01:14:00;;;;;;;23.63;15.67;;;;;;;10.46;42.08;100033.19;4140651;28;21114;-65
2022/03/23 01:16:01;;;;;;;27.20;15.77;;;;;;;10.96;41.26;100028.16;4142357;28;20269;-65
2022/03/23 01:18:04;;;;;;;24.47;14.90;;;;;;;11.22;40.74;100040.66;4142107;28;20237;-65
2022/03/23 01:20:08;;;;;;;19.83;15.03;;;;;;;11.23;40.69;100036.19;4143297;28;20329;-65
2022/03/23 01:22:10;;;;;;;21.27;15.13;;;;;;;11.12;40.83;100046.09;4146136;28;20228;-65
2022/03/23 01:24:11;;;;;;;23.53;15.00;;;;;;;11.26;40.65;100042.03;4157437;28;20287;-65
2022/03/23 01:26:13;;;;;;;21.40;14.63;;;;;;;10.82;41.04;100055.31;4148769;28;20229;-65
2022/03/23 01:28:15;;;;;;;22.57;15.23;;;;;;;10.94;41.13;100038.13;4140864;28;20757;-65
2022/03/23 01:30:16;;;;;;;24.07;15.80;;;;;;;11.15;40.81;100036.94;4143622;28;20312;-64
2022/03/23 01:32:18;;;;;;;24.00;15.90;;;;;;;11.18;40.76;100042.78;4144265;28;20260;-65
2022/03/23 01:34:20;;;;;;;22.17;15.97;;;;;;;11.04;41.22;100045.16;4142237;28;20267;-65
2022/03/23 01:36:22;;;;;;;23.13;16.00;;;;;;;11.13;41.07;100042.41;4146160;28;20248;-65
2022/03/23 01:38:23;;;;;;;19.40;13.77;;;;;;;8.33;48.29;100059.16;4158249;28;20986;-65
2022/03/23 01:40:25;;;;;;;21.70;15.27;;;;;;;7.60;49.68;100038.13;4147371;28;20229;-65
2022/03/23 01:42:28;;;;;;;20.77;15.90;;;;;;;7.55;50.41;100016.53;4141935;28;20252;-65
2022/03/23 01:44:29;;;;;;;22.33;14.90;;;;;;;8.79;47.14;100006.44;4146709;28;20264;-65
2022/03/23 01:46:32;;;;;;;21.63;15.73;;;;;;;7.81;49.77;100021.34;4140991;28;20233;-65
2022/03/23 01:48:33;;;;;;;23.30;15.57;;;;;;;9.94;44.11;100001.91;4141990;28;20236;-65
2022/03/23 01:50:36;;;;;;;21.77;15.67;;;;;;;7.97;48.28;100024.34;4141617;28;20326;-65
2022/03/23 01:52:39;;;;;;;25.97;16.47;;;;;;;7.82;49.84;100001.88;4138603;28;20260;-65
2022/03/23 01:54:41;;;;;;;23.03;15.93;;;;;;;8.14;48.26;100012.25;4137590;28;20766;-65
2022/03/23 01:56:44;;;;;;;22.13;15.90;;;;;;;9.94;44.34;100007.22;4140556;28;20602;-65
2022/03/23 01:58:46;;;;;;;23.67;16.43;;;;;;;10.55;42.43;100022.47;4141770;28;20627;-65
2022/03/23 02:00:48;;;;;;;23.53;16.93;;;;;;;10.62;42.11;100018.22;4141753;28;20271;-65
2022/03/23 02:02:51;;;;;;;25.60;18.10;;;;;;;10.37;42.38;100014.50;4141854;28;20245;-65
2022/03/23 02:04:53;;;;;;;24.47;17.77;;;;;;;10.53;42.14;100023.59;4141849;28;20243;-65
2022/03/23 02:06:55;;;;;;;25.20;18.40;;;;;;;10.70;41.79;100032.56;4148743;28;20260;-64
2022/03/23 02:08:56;;;;;;;24.47;18.67;;;;;;;10.68;41.82;100030.06;4153723;28;20268;-65
2022/03/23 02:10:58;;;;;;;23.90;17.90;;;;;;;10.44;42.12;100041.31;4141682;28;20332;-65
2022/03/23 02:13:00;;;;;;;27.87;17.40;;;;;;;10.33;42.63;100037.06;4148512;28;20335;-65
2022/03/23 02:15:11;;;;;;;23.27;16.67;;;;;;;10.27;42.83;100026.19;4158249;28;20720;-65
2022/03/23 02:17:13;;;;;;;23.17;16.00;;;;;;;9.00;45.07;100056.69;4145607;28;20251;-64
2022/03/23 02:19:15;;;;;;;19.43;16.03;;;;;;;6.87;49.96;100046.03;4141324;28;20282;-66
2022/03/23 02:21:16;;;;;;;21.73;15.83;;;;;;;6.02;52.94;100017.72;4140487;28;20237;-65
2022/03/23 02:23:18;;;;;;;21.00;14.67;;;;;;;7.41;49.46;100020.38;4141916;28;20261;-65
2022/03/23 02:25:23;;;;;;;21.63;16.43;;;;;;;8.47;47.79;100001.44;4140296;28;20275;-65
2022/03/23 02:27:25;;;;;;;23.13;15.70;;;;;;;8.23;47.96;100020.34;4141555;28;20280;-65
2022/03/23 02:29:30;;;;;;;25.40;16.77;;;;;;;8.21;47.00;100033.72;4140129;28;20271;-65
2022/03/23 02:31:32;;;;;;;22.70;16.43;;;;;;;7.32;50.39;100025.63;4140337;28;20271;-65
2022/03/23 02:33:33;;;;;;;29.27;18.43;;;;;;;7.03;50.44;100008.59;4139458;28;20932;-65
2022/03/23 02:35:35;;;;;;;25.00;17.83;;;;;;;7.28;50.33;100017.94;4141627;28;20260;-65
2022/03/23 02:37:39;;;;;;;24.07;16.30;;;;;;;6.57;52.25;100006.28;4141143;28;20807;-65
2022/03/23 02:39:40;;;;;;;26.53;16.90;;;;;;;7.11;51.60;100002.66;4141508;28;20288;-65
2022/03/23 02:41:42;;;;;;;23.77;16.77;;;;;;;8.68;47.32;99980.94;4136195;28;20233;-65
2022/03/23 02:43:44;;;;;;;25.43;16.93;;;;;;;9.49;44.70;100001.66;4142097;28;20236;-64
2022/03/23 02:45:46;;;;;;;24.87;17.93;;;;;;;9.74;44.31;100002.03;4149018;28;20254;-65
2022/03/23 02:47:48;;;;;;;23.47;16.43;;;;;;;8.84;45.62;100021.94;4141070;28;20243;-65
2022/03/23 02:49:49;;;;;;;24.10;16.73;;;;;;;8.91;46.29;99997.38;4145774;28;20255;-64
2022/03/23 02:51:51;;;;;;;25.83;18.33;;;;;;;10.00;43.74;100010.13;4141324;28;20271;-65
2022/03/23 03:03:34;;;;;;;29.80;18.53;;;;;;;9.90;43.69;100040.38;4135270;28;20233;-64
2022/03/23 03:05:36;;;;;;;32.00;19.70;;;;;;;8.54;46.38;100031.69;4140577;28;20265;-64
2022/03/23 03:09:58;;;;;;;24.07;19.07;;;;;;;9.50;44.67;100029.91;4141036;28;20236;-64
2022/03/23 03:12:01;;;;;;;26.77;18.67;;;;;;;9.47;44.39;100035.50;4139811;28;20291;-64
2022/03/23 03:14:03;;;;;;;25.10;17.10;;;;;;;9.51;44.97;100033.38;4127818;28;20257;-65
2022/03/23 03:16:05;;;;;;;23.17;17.83;;;;;;;9.59;45.26;100024.72;4143100;28;20260;-65
2022/03/23 03:18:06;;;;;;;24.90;17.73;;;;;;;9.41;45.47;100038.72;4137896;28;20237;-64
2022/03/23 03:20:10;;;;;;;25.73;18.07;;;;;;;9.47;45.75;100038.16;4139916;28;20321;-64
2022/03/23 03:22:11;;;;;;;23.33;17.83;;;;;;;7.81;49.76;100055.78;4140354;28;20265;-64
2022/03/23 03:24:13;;;;;;;24.93;18.50;;;;;;;6.97;52.38;100042.66;4138155;28;20316;-65
2022/03/23 03:26:16;;;;;;;24.07;17.87;;;;;;;6.34;53.65;100038.91;4138825;28;20344;-65
2022/03/23 03:28:17;;;;;;;21.73;16.37;;;;;;;6.09;53.63;100026.84;4141243;28;20484;-64
2022/03/23 03:30:20;;;;;;;25.33;17.47;;;;;;;5.66;53.63;100024.97;4139220;28;20244;-65
2022/03/23 03:32:22;;;;;;;20.73;16.93;;;;;;;5.89;54.49;100009.13;4147545;28;20286;-64
2022/03/23 03:34:23;;;;;;;21.17;17.33;;;;;;;7.65;50.34;100001.53;4140899;28;20316;-65
2022/03/23 03:36:25;;;;;;;22.97;17.37;;;;;;;9.39;46.24;100005.34;4140543;28;20268;-64
2022/03/23 03:38:28;;;;;;;26.13;20.17;;;;;;;9.22;46.28;100020.22;4140301;28;20261;-64
2022/03/23 03:40:30;;;;;;;22.63;19.33;;;;;;;9.29;46.40;100035.38;4139295;28;20260;-64
2022/03/23 03:42:32;;;;;;;25.87;17.63;;;;;;;8.24;49.40;100001.69;4136253;28;20257;-64
2022/03/23 03:44:34;;;;;;;23.60;18.50;;;;;;;8.22;49.46;100008.91;4147556;28;20713;-65
2022/03/23 03:46:35;;;;;;;25.33;17.87;;;;;;;8.98;47.71;100018.00;4152891;28;20240;-64
2022/03/23 03:48:40;;;;;;;25.50;17.03;;;;;;;9.48;46.38;100023.88;4142974;28;20714;-65
2022/03/23 03:50:41;;;;;;;25.83;18.90;;;;;;;9.76;46.12;100031.91;4141751;28;20240;-64
2022/03/23 03:52:43;;;;;;;25.00;18.67;;;;;;;9.62;46.04;100045.66;4142729;28;20237;-64
2022/03/23 03:54:45;;;;;;;24.63;18.43;;;;;;;9.68;46.13;100051.22;4143177;28;20232;-64
2022/03/23 03:56:46;;;;;;;25.77;18.93;;;;;;;9.61;46.06;100052.78;4143615;28;21133;-64
2022/03/23 03:58:48;;;;;;;24.70;19.80;;;;;;;7.65;50.61;100057.09;4143464;28;20780;-64
2022/03/23 04:00:50;;;;;;;23.67;20.03;;;;;;;9.05;47.61;100045.66;4142683;28;20272;-64
2022/03/23 04:02:52;;;;;;;29.27;20.43;;;;;;;9.08;47.10;100054.16;4141958;28;20248;-64
2022/03/23 04:04:54;;;;;;;29.13;21.57;;;;;;;7.47;50.85;100058.69;4142287;28;20251;-64
2022/03/23 04:06:55;;;;;;;27.07;20.93;;;;;;;8.81;47.72;100046.06;4143431;28;20246;-65
2022/03/23 04:08:57;;;;;;;29.60;22.13;;;;;;;9.56;46.01;100051.53;4143642;28;20271;-65
2022/03/23 04:10:59;;;;;;;28.57;22.10;;;;;;;9.56;45.82;100051.53;4141688;28;20291;-65
2022/03/23 04:13:00;;;;;;;30.87;21.03;;;;;;;9.56;45.70;100062.97;4141552;28;20315;-64
2022/03/23 04:15:03;;;;;;;27.77;21.00;;;;;;;9.42;45.64;100053.66;4140995;28;20320;-64
2022/03/23 04:17:04;;;;;;;30.70;20.77;;;;;;;9.62;45.47;100058.94;4143630;28;20699;-64
2022/03/23 04:19:06;;;;;;;28.60;21.17;;;;;;;7.56;50.26;100087.00;4143182;28;20324;-64
2022/03/23 04:21:08;;;;;;;27.30;19.53;;;;;;;8.13;49.17;100046.81;4135046;28;20262;-64
2022/03/23 04:23:10;;;;;;;24.70;19.40;;;;;;;6.53;52.63;100067.31;4149847;28;20235;-64
2022/03/23 04:25:13;;;;;;;26.20;19.53;;;;;;;5.59;55.48;100053.63;4142630;28;20261;-64
2022/03/23 04:27:15;;;;;;;24.30;17.97;;;;;;;8.19;48.65;100039.16;4153062;28;20238;-64
2022/03/23 04:29:17;;;;;;;23.73;18.63;;;;;;;6.15;53.58;100071.25;4159411;28;20729;-64
2022/03/23 04:31:18;;;;;;;25.97;18.30;;;;;;;5.45;56.26;100059.13;4142012;28;20273;-64
2022/03/23 04:33:20;;;;;;;23.70;17.63;;;;;;;8.02;48.70;100039.84;4149213;28;20725;-64
2022/03/23 04:35:22;;;;;;;26.67;19.67;;;;;;;8.14;48.54;100048.50;4143597;28;20271;-69
2022/03/23 04:37:24;;;;;;;27.87;21.00;;;;;;;8.59;47.29;100061.28;4140091;28;20272;-66
2022/03/23 04:39:25;;;;;;;28.00;21.40;;;;;;;8.73;47.00;100070.66;4143436;28;20249;-64
2022/03/23 04:41:27;;;;;;;27.60;21.83;;;;;;;8.92;46.34;100075.09;4142180;28;20655;-66
2022/03/23 04:43:29;;;;;;;28.50;21.93;;;;;;;8.80;46.69;100070.94;4143061;28;20245;-64
2022/03/23 04:45:31;;;;;;;26.67;20.93;;;;;;;8.91;46.45;100076.06;4142595;28;20257;-69
2022/03/23 04:47:36;;;;;;;24.93;19.10;;;;;;;8.74;46.87;100081.13;4142793;28;20773;-64
2022/03/23 04:49:38;;;;;;;30.43;21.40;;;;;;;8.66;47.13;100085.41;4139632;28;20237;-64
2022/03/23 04:51:40;;;;;;;27.80;21.50;;;;;;;7.98;47.96;100116.03;4142293;28;20682;-64
2022/03/23 04:53:42;;;;;;;25.13;19.27;;;;;;;5.90;54.32;100098.72;4139487;28;20253;-64
2022/03/23 04:55:44;;;;;;;24.63;19.20;;;;;;;5.02;56.70;100084.31;4142508;28;20268;-65
2022/03/23 04:57:46;;;;;;;26.80;19.63;;;;;;;6.14;54.27;100063.44;4142385;28;20221;-64
2022/03/23 04:59:47;;;;;;;24.50;19.40;;;;;;;7.93;49.43;100057.34;4142693;28;20272;-64
2022/03/23 05:01:49;;;;;;;26.43;20.00;;;;;;;8.39;47.52;100063.09;4143096;28;20597;-63
2022/03/23 05:03:52;;;;;;;28.53;19.33;;;;;;;8.10;47.83;100084.16;4141733;28;20236;-64
2022/03/23 05:05:54;;;;;;;25.03;17.80;;;;;;;8.27;47.60;100075.59;4140438;28;20673;-65
2022/03/23 05:07:56;;;;;;;25.23;19.23;;;;;;;8.49;46.75;100085.13;4141862;28;20792;-64
2022/03/23 05:09:57;;;;;;;25.63;18.53;;;;;;;8.58;46.71;100078.16;4140074;28;20623;-64
2022/03/23 05:11:59;;;;;;;23.63;17.57;;;;;;;8.70;46.20;100081.53;4138979;28;20272;-64
2022/03/23 05:14:00;;;;;;;22.43;18.10;;;;;;;8.84;46.02;100094.34;4139058;28;20244;-64
2022/03/23 05:16:03;;;;;;;24.07;18.53;;;;;;;8.80;46.06;100090.31;4141173;28;20271;-64
2022/03/23 05:18:05;;;;;;;25.30;17.60;;;;;;;8.74;46.42;100104.13;4157280;28;21079;-64
2022/03/23 05:20:08;;;;;;;23.37;17.57;;;;;;;6.00;53.17;100106.78;4150899;28;20237;-64
2022/03/23 05:22:10;;;;;;;25.43;17.27;;;;;;;5.92;54.14;100102.09;4141876;28;20749;-64
2022/03/23 05:24:11;;;;;;;26.07;17.43;;;;;;;6.87;51.18;100092.75;4140590;28;20261;-64
2022/03/23 05:26:13;;;;;;;25.10;17.03;;;;;;;6.29;52.67;100107.09;4141965;28;20260;-64
2022/03/23 05:28:15;;;;;;;25.10;18.07;;;;;;;5.55;55.21;100104.94;4150229;28;20256;-64
2022/03/23 05:30:17;;;;;;;26.17;17.80;;;;;;;4.91;56.13;100093.97;4141171;28;20733;-64
2022/03/23 05:32:18;;;;;;;24.70;17.83;;;;;;;5.45;55.58;100082.03;4139278;28;20243;-64
2022/03/23 05:34:20;;;;;;;22.33;17.70;;;;;;;7.56;49.41;100081.69;4143990;28;20605;-64
2022/03/23 05:36:22;;;;;;;24.90;18.87;;;;;;;7.02;51.22;100088.88;4141952;28;20653;-65
2022/03/23 05:38:24;;;;;;;28.33;18.47;;;;;;;5.18;54.90;100104.22;4142177;28;20253;-63
2022/03/23 05:40:26;;;;;;;25.17;18.47;;;;;;;4.99;56.07;100104.78;4142020;28;20652;-63
2022/03/23 05:42:27;;;;;;;23.20;17.30;;;;;;;4.94;56.71;100091.09;4144576;28;20231;-63
2022/03/23 05:44:29;;;;;;;23.33;16.70;;;;;;;4.92;57.13;100095.66;4140775;28;20320;-65
2022/03/23 05:46:31;;;;;;;25.27;18.97;;;;;;;6.90;51.93;100085.41;4141843;28;20660;-65
2022/03/23 05:48:33;;;;;;;24.20;18.60;;;;;;;7.74;48.71;100087.22;4140757;28;20260;-65
2022/03/23 05:50:35;;;;;;;25.07;19.27;;;;;;;7.37;49.41;100093.03;4140882;28;20237;-64
2022/03/23 05:52:38;;;;;;;21.13;17.43;;;;;;;5.52;53.91;100107.84;4140682;28;20714;-64
2022/03/23 05:54:40;;;;;;;21.53;17.10;;;;;;;5.04;56.37;100105.28;4140883;28;20229;-65
2022/03/23 05:56:42;;;;;;;23.27;17.47;;;;;;;6.70;52.46;100089.72;4141664;28;20236;-65
2022/03/23 05:58:44;;;;;;;25.37;17.40;;;;;;;7.53;50.77;100097.88;4146512;28;20294;-65
2022/03/23 06:00:45;;;;;;;26.73;18.00;;;;;;;6.49;52.89;100094.94;4144374;28;20306;-65
2022/03/23 06:02:47;;;;;;;24.70;18.60;;;;;;;5.86;54.56;100102.59;4140923;28;20237;-65
2022/03/23 06:04:49;;;;;;;25.80;18.03;;;;;;;5.34;56.72;100117.16;4139812;28;20256;-63
2022/03/23 06:06:52;;;;;;;29.03;18.67;;;;;;;6.79;51.57;100109.25;4143130;28;20268;-64
2022/03/23 06:08:54;;;;;;;27.83;18.10;;;;;;;7.61;49.02;100116.56;4142701;28;20665;-64
2022/03/23 06:10:56;;;;;;;23.93;17.93;;;;;;;6.06;52.86;100122.09;4141196;28;20321;-63
2022/03/23 06:12:57;;;;;;;25.13;17.57;;;;;;;5.87;53.16;100122.72;4146177;28;20263;-63
2022/03/23 06:14:59;;;;;;;25.47;18.30;;;;;;;5.29;56.53;100122.72;4144267;28;20241;-63
2022/03/23 06:17:01;;;;;;;29.83;19.90;;;;;;;5.34;56.96;100123.25;4148699;28;20231;-64
2022/03/23 06:19:03;;;;;;;28.30;19.83;;;;;;;5.85;55.02;100118.53;4147155;28;20272;-63
2022/03/23 06:21:04;;;;;;;23.70;18.13;;;;;;;6.91;51.63;100134.72;4132593;28;20749;-64
2022/03/23 06:23:07;;;;;;;28.20;19.47;;;;;;;6.96;50.51;100159.97;4139844;28;20526;-64
2022/03/23 06:25:09;;;;;;;33.07;22.90;;;;;;;5.86;53.96;100128.13;4132967;28;20328;-63
2022/03/23 06:27:10;;;;;;;32.33;22.10;;;;;;;5.65;54.80;100120.06;4141897;28;20245;-63
2022/03/23 06:29:12;;;;;;;31.83;21.37;;;;;;;5.64;54.67;100124.53;4141612;28;20283;-63
2022/03/23 06:31:14;;;;;;;30.87;21.83;;;;;;;5.88;54.11;100118.31;4149395;28;20229;-63
2022/03/23 06:33:16;;;;;;;26.63;21.33;;;;;;;5.96;53.80;100137.00;4149306;28;20236;-63
2022/03/23 06:35:18;;;;;;;28.63;20.37;;;;;;;5.85;54.41;100121.19;4146748;28;20302;-63
2022/03/23 06:37:19;;;;;;;27.17;20.47;;;;;;;5.51;56.06;100131.69;4141172;28;20355;-65
2022/03/23 06:39:21;;;;;;;30.87;21.27;;;;;;;6.12;55.41;100116.34;4141307;28;20597;-65
2022/03/23 06:41:23;;;;;;;25.17;19.13;;;;;;;7.64;52.31;100118.09;4141369;28;20391;-65
2022/03/23 06:43:26;;;;;;;26.13;19.47;;;;;;;8.11;50.27;100122.94;4146756;28;20307;-65
2022/03/23 06:45:29;;;;;;;25.20;20.07;;;;;;;7.23;51.63;100141.81;4149620;28;20231;-65
2022/03/23 06:47:31;;;;;;;27.57;21.23;;;;;;;6.42;53.83;100143.13;4142804;28;20256;-65
2022/03/23 06:49:32;;;;;;;29.97;22.27;;;;;;;7.33;52.47;100133.94;4141448;28;20623;-66
2022/03/23 06:51:34;;;;;;;35.27;26.73;;;;;;;6.11;54.04;100143.75;4141606;28;20261;-66
2022/03/23 06:53:35;;;;;;;34.03;26.43;;;;;;;7.08;52.94;100130.69;4153329;28;20316;-66
2022/03/23 06:55:38;;;;;;;31.13;22.57;;;;;;;8.17;50.57;100146.22;4146337;28;20237;-66
2022/03/23 06:57:40;;;;;;;32.90;24.90;;;;;;;8.30;50.06;100140.69;4141024;28;20265;-66
2022/03/23 06:59:42;;;;;;;30.17;21.57;;;;;;;7.97;51.41;100146.16;4141292;28;20229;-65
2022/03/23 07:01:43;;;;;;;36.13;21.23;;;;;;;8.12;50.95;100164.31;4139844;28;20265;-66
2022/03/23 07:03:45;;;;;;;23.50;18.07;;;;;;;6.27;56.83;100174.22;4139545;28;20312;-65
2022/03/23 07:05:46;;;;;;;26.27;18.27;;;;;;;6.17;58.24;100153.81;4142732;28;20240;-65
2022/03/23 07:10:09;;;;;;;25.10;18.50;;;;;;;6.65;57.62;100150.03;4140672;28;20634;-65
2022/03/23 07:12:11;;;;;;;28.47;19.10;;;;;;;6.93;56.10;100160.19;4141777;28;20257;-65
2022/03/23 07:14:13;;;;;;;25.67;18.47;;;;;;;6.96;56.74;100157.31;4152633;28;20309;-65
2022/03/23 07:16:16;;;;;;;28.03;20.87;;;;;;;6.63;57.95;100156.41;4152804;28;20295;-65
2022/03/23 07:18:18;;;;;;;28.73;20.87;;;;;;;6.76;57.75;100157.09;4151974;28;20879;-65
2022/03/23 07:20:19;;;;;;;29.07;19.83;;;;;;;6.85;56.84;100180.13;4150882;28;20328;-65
2022/03/23 07:22:21;;;;;;;25.93;18.90;;;;;;;7.00;58.01;100156.09;4152771;28;20252;-65
2022/03/23 07:24:23;;;;;;;26.10;18.23;;;;;;;6.24;59.73;100166.53;4160685;28;20274;-66
2022/03/23 07:26:25;;;;;;;26.87;17.93;;;;;;;6.88;58.85;100160.53;4155867;28;20396;-66
2022/03/23 07:28:26;;;;;;;25.83;18.77;;;;;;;7.92;56.01;100164.25;4144122;28;20233;-65
2022/03/23 07:30:30;;;;;;;28.07;18.20;;;;;;;7.63;56.53;100166.72;4143942;28;20247;-65
2022/03/23 07:32:33;;;;;;;24.23;18.67;;;;;;;7.00;58.81;100175.41;4142938;28;20229;-66
2022/03/23 07:34:35;;;;;;;29.27;20.07;;;;;;;8.13;54.62;100158.88;4142835;28;20264;-66
2022/03/23 07:36:40;;;;;;;27.90;19.57;;;;;;;8.06;54.12;100178.94;4143959;28;20324;-64
2022/03/23 07:38:42;;;;;;;28.70;20.00;;;;;;;8.89;52.69;100142.50;4145142;28;20254;-66
2022/03/23 07:40:44;;;;;;;26.77;17.93;;;;;;;8.86;52.97;100157.88;4146280;28;20271;-66
2022/03/23 07:42:45;;;;;;;27.87;19.37;;;;;;;8.03;56.29;100192.44;4143751;28;20267;-65
2022/03/23 07:44:47;;;;;;;27.90;17.90;;;;;;;7.79;57.00;100198.84;4151647;28;20324;-65
2022/03/23 07:46:49;;;;;;;29.63;18.87;;;;;;;7.86;57.32;100187.75;4151572;28;20256;-64
2022/03/23 07:48:50;;;;;;;25.33;17.03;;;;;;;7.84;56.80;100206.41;4143680;28;20273;-65
2022/03/23 07:50:52;;;;;;;24.67;18.80;;;;;;;7.42;57.64;100225.75;4143430;28;20330;-65
2022/03/23 07:52:54;;;;;;;27.20;17.97;;;;;;;7.50;58.33;100196.03;4143663;28;20268;-64
2022/03/23 07:54:56;;;;;;;23.27;17.83;;;;;;;6.54;60.97;100203.72;4142702;28;20682;-64
2022/03/23 07:56:58;;;;;;;31.27;19.03;;;;;;;7.93;56.86;100200.31;4143931;28;20316;-64
2022/03/23 07:59:00;;;;;;;28.87;18.57;;;;;;;8.12;57.44;100183.72;4144242;28;20775;-64
2022/03/23 08:01:02;;;;;;;29.57;18.70;;;;;;;8.48;56.77;100178.84;4144211;28;20249;-64
2022/03/23 08:03:06;;;;;;;23.17;17.47;;;;;;;6.82;59.50;100227.97;4142707;28;20231;-64
2022/03/23 08:05:10;;;;;;;23.80;18.23;;;;;;;7.76;58.38;100207.06;4144433;28;20244;-64
2022/03/23 08:07:11;;;;;;;29.20;17.80;;;;;;;8.31;56.97;100190.06;4144070;28;20237;-64
2022/03/23 08:09:13;;;;;;;26.00;17.87;;;;;;;7.54;58.89;100210.66;4142395;28;20317;-64
2022/03/23 08:11:16;;;;;;;28.47;16.67;;;;;;;7.16;59.60;100227.91;4147887;28;20227;-65
2022/03/23 08:13:19;;;;;;;24.47;16.97;;;;;;;8.48;56.60;100193.94;4144622;28;20261;-65
2022/03/23 08:15:21;;;;;;;24.97;17.50;;;;;;;8.15;57.55;100204.66;4142077;28;20268;-65
2022/03/23 08:17:22;;;;;;;24.53;17.23;;;;;;;8.05;57.69;100219.63;4146025;28;20659;-64
2022/03/23 08:19:24;;;;;;;26.00;18.90;;;;;;;7.20;59.21;100242.56;4143849;28;20253;-64
2022/03/23 08:21:28;;;;;;;25.60;17.83;;;;;;;8.04;57.73;100196.78;4143278;28;20514;-64
2022/03/23 08:23:30;;;;;;;23.00;18.20;;;;;;;8.63;56.28;100181.97;4143878;28;20234;-64
2022/03/23 08:25:33;;;;;;;24.67;18.87;;;;;;;9.46;53.46;100153.25;4143972;28;20320;-64
2022/03/23 08:27:37;;;;;;;27.47;18.73;;;;;;;9.37;54.12;100164.72;4151671;28;20236;-64
2022/03/23 08:29:39;;;;;;;28.60;18.13;;;;;;;8.39;54.57;100232.69;4149029;28;20298;-64
2022/03/23 08:31:41;;;;;;;23.70;19.13;;;;;;;8.92;54.41;100197.09;4150397;28;20251;-64
2022/03/23 08:33:43;;;;;;;25.43;18.43;;;;;;;8.64;55.64;100214.63;4140428;28;20618;-64
2022/03/23 08:35:46;;;;;;;29.57;18.60;;;;;;;9.76;53.10;100153.25;4143382;28;20283;-65
2022/03/23 08:37:48;;;;;;;26.97;18.83;;;;;;;9.67;53.40;100161.09;4143418;28;20241;-65
2022/03/23 08:39:49;;;;;;;30.00;19.17;;;;;;;8.83;54.59;100219.97;4143316;28;20238;-64
2022/03/23 08:41:51;;;;;;;27.70;18.37;;;;;;;8.99;56.14;100206.19;4141372;28;20233;-66
2022/03/23 08:43:53;;;;;;;27.03;19.20;;;;;;;9.08;55.56;100208.03;4141842;28;20328;-66
2022/03/23 08:45:55;;;;;;;25.37;19.07;;;;;;;9.89;53.59;100175.00;4140328;28;20308;-66
2022/03/23 08:47:57;;;;;;;29.47;19.10;;;;;;;7.80;58.13;100248.19;4140905;28;20240;-65
2022/03/23 08:49:58;;;;;;;27.10;19.37;;;;;;;8.46;57.26;100217.91;4145038;28;20619;-65
2022/03/23 08:52:00;;;;;;;31.30;20.77;;;;;;;8.68;56.76;100231.94;4145040;28;20336;-65
2022/03/23 08:54:02;;;;;;;27.90;18.37;;;;;;;9.58;55.24;100169.03;4141144;28;20264;-65
2022/03/23 08:56:05;;;;;;;31.53;20.40;;;;;;;10.17;54.36;100167.91;4142445;28;20352;-65
2022/03/23 08:58:07;;;;;;;30.13;20.53;;;;;;;9.97;53.58;100161.81;4143002;28;20272;-66
2022/03/23 09:00:11;;;;;;;28.57;18.97;;;;;;;10.28;52.87;100150.09;4149562;28;20687;-65
2022/03/23 09:02:13;;;;;;;28.33;20.23;;;;;;;10.05;52.95;100174.41;4145487;28;20309;-65
2022/03/23 09:04:15;;;;;;;26.97;20.20;;;;;;;9.82;54.33;100188.03;4141740;28;20244;-65
2022/03/23 09:06:17;;;;;;;28.63;19.43;;;;;;;10.29;53.23;100149.13;4142342;28;20235;-65
2022/03/23 09:08:19;;;;;;;30.27;19.87;;;;;;;9.96;53.93;100183.22;4144540;28;20283;-65
2022/03/23 09:10:21;;;;;;;27.37;19.30;;;;;;;10.20;52.95;100178.25;4146879;28;20754;-65
2022/03/23 09:12:23;;;;;;;30.87;18.33;;;;;;;10.89;51.46;100156.66;4141180;28;20732;-65
2022/03/23 09:14:24;;;;;;;28.80;20.27;;;;;;;11.67;49.09;100135.47;4141060;28;20671;-65
2022/03/23 09:16:26;;;;;;;29.80;19.00;;;;;;;11.98;48.16;100126.19;4150444;28;20225;-65
2022/03/23 09:18:28;;;;;;;31.77;19.67;;;;;;;11.62;48.83;100147.59;4143106;28;20224;-65
2022/03/23 09:20:32;;;;;;;28.43;17.73;;;;;;;10.90;51.06;100191.09;4142054;28;20283;-66
2022/03/23 09:22:34;;;;;;;31.03;18.80;;;;;;;11.79;48.49;100143.22;4147004;28;20423;-66
2022/03/23 09:24:36;;;;;;;26.03;19.00;;;;;;;11.28;50.61;100198.94;4152013;28;20291;-65
2022/03/23 09:26:39;;;;;;;33.23;19.07;;;;;;;11.87;50.91;100161.94;4143005;28;20355;-65
2022/03/23 09:28:41;;;;;;;25.73;18.97;;;;;;;11.25;52.02;100184.06;4145621;28;20296;-65
2022/03/23 09:30:42;;;;;;;29.23;19.60;;;;;;;11.30;52.22;100192.44;4141777;28;20265;-65
2022/03/23 09:32:46;;;;;;;26.67;19.47;;;;;;;11.94;50.91;100141.66;4147636;28;20799;-65
2022/03/23 09:34:49;;;;;;;28.07;19.23;;;;;;;12.36;48.53;100132.84;4142029;28;20240;-64